Time;durP1;ratioP1;P1;durP2;ratioP2;P2;SDS_P1;SDS_P2;PMS_P1;PMS_P2;Temp;Humidity;BMP_temperature;BMP_pressure;BME280_temperature;BME280_humidity;BME280_pressure;Samples;Min_cycle;Max_cycle;Signal;HPM_P1;HPM_P2
2021/10/27 00:01:17;;;;;;;9.63;3.65;;;11.60;99.90;;;12.12;81.21;101705.75;5061075;28;20212;-71
2021/10/27 00:03:44;;;;;;;9.02;3.08;;;11.60;99.90;;;12.06;81.13;101714.63;5063967;28;20610;-72
2021/10/27 00:06:10;;;;;;;10.80;3.53;;;11.60;99.90;;;12.06;81.26;101711.13;5065510;28;20722;-73
2021/10/27 00:08:37;;;;;;;12.07;3.80;;;11.60;99.90;;;12.05;81.37;101714.69;5083196;28;20199;-70
2021/10/27 00:11:05;;;;;;;10.85;3.28;;;11.50;99.90;;;12.04;81.66;101723.47;5058745;28;20200;-73
2021/10/27 00:13:32;;;;;;;8.60;2.92;;;11.50;99.90;;;12.03;81.76;101721.72;5069812;28;20192;-73
2021/10/27 00:16:01;;;;;;;11.20;3.58;;;11.50;99.90;;;12.02;81.85;101731.34;5064241;28;20207;-71
2021/10/27 00:18:27;;;;;;;14.50;5.55;;;11.50;99.90;;;12.03;81.99;101727.84;5066724;28;22057;-70
2021/10/27 00:20:54;;;;;;;9.55;3.80;;;11.50;99.90;;;12.03;81.76;101733.09;5062686;28;20704;-71
2021/10/27 00:23:21;;;;;;;9.57;3.63;;;11.50;99.90;;;12.03;81.97;101735.72;5062359;28;20192;-72
2021/10/27 00:25:48;;;;;;;8.25;3.22;;;11.50;99.90;;;12.03;81.88;101727.84;5057792;28;20224;-71
2021/10/27 00:28:16;;;;;;;9.68;3.10;;;11.50;99.90;;;12.01;81.78;101732.25;5066410;28;20590;-70
2021/10/27 00:30:42;;;;;;;10.02;2.97;;;11.50;99.90;;;12.00;82.08;101724.44;5065775;28;20250;-72
2021/10/27 00:33:09;;;;;;;11.02;3.47;;;11.50;99.90;;;12.03;82.28;101729.59;5067493;28;20237;-73
2021/10/27 00:35:36;;;;;;;9.30;4.05;;;11.50;99.90;;;12.01;82.22;101721.75;5071687;28;20209;-72
2021/10/27 00:38:03;;;;;;;9.40;3.47;;;11.50;99.90;;;12.00;82.02;101727.06;5076194;28;20204;-71
2021/10/27 00:40:30;;;;;;;10.43;3.50;;;11.50;99.90;;;11.96;82.26;101718.41;5075704;28;20273;-71
2021/10/27 00:42:57;;;;;;;11.63;3.53;;;11.50;99.90;;;11.98;82.17;101723.59;5073389;28;20211;-70
2021/10/27 00:45:25;;;;;;;8.75;3.35;;;11.50;99.90;;;11.97;82.28;101717.50;5071292;28;20207;-72
2021/10/27 00:47:52;;;;;;;10.45;3.53;;;11.50;99.90;;;11.98;82.28;101724.47;5064163;28;20187;-72
2021/10/27 00:50:18;;;;;;;11.18;3.22;;;11.50;99.90;;;11.97;82.31;101725.38;5059534;28;20613;-72
2021/10/27 00:52:46;;;;;;;10.02;3.60;;;11.40;99.90;;;11.95;82.38;101713.19;5069315;28;20191;-72
2021/10/27 00:55:13;;;;;;;12.60;3.80;;;11.40;99.90;;;11.93;82.40;101720.25;5072475;28;20268;-73
2021/10/27 00:57:40;;;;;;;10.57;3.53;;;11.40;99.90;;;11.94;82.59;101717.59;5057806;28;20189;-72
2021/10/27 01:00:09;;;;;;;9.38;3.42;;;11.40;99.90;;;11.96;82.75;101715.78;5070304;28;20226;-72
2021/10/27 01:02:37;;;;;;;9.25;3.55;;;11.50;99.90;;;11.97;82.58;101714.03;5070482;28;20685;-72
2021/10/27 01:05:05;;;;;;;10.73;3.20;;;11.50;99.90;;;11.99;82.80;101720.94;5071213;28;20221;-72
2021/10/27 01:07:32;;;;;;;9.10;3.17;;;11.50;99.90;;;12.02;82.64;101712.97;5065333;28;20275;-71
2021/10/27 01:09:59;;;;;;;9.50;3.38;;;11.50;99.90;;;12.02;82.60;101710.34;5065782;28;20196;-71
2021/10/27 01:12:26;;;;;;;9.38;3.25;;;11.50;99.90;;;12.05;82.55;101714.69;5068634;28;20215;-72
2021/10/27 01:14:53;;;;;;;10.18;3.75;;;11.50;99.90;;;12.06;82.37;101712.00;5070929;28;20223;-72
2021/10/27 01:17:20;;;;;;;11.48;3.60;;;11.50;99.90;;;12.06;82.59;101712.00;5079473;28;20192;-72
2021/10/27 01:19:52;;;;;;;7.93;3.08;;;11.60;99.90;;;12.06;82.40;101706.75;5060752;28;20265;-72
2021/10/27 01:22:23;;;;;;;12.50;3.45;;;11.60;99.90;;;12.07;82.44;101707.63;5060631;28;20636;-72
2021/10/27 01:24:50;;;;;;;13.13;3.83;;;11.50;99.90;;;12.05;82.57;101706.81;5068545;28;20692;-74
2021/10/27 01:27:18;;;;;;;11.32;3.50;;;11.50;99.90;;;12.06;82.42;101705.88;5065689;28;20196;-71
2021/10/27 01:29:45;;;;;;;11.90;3.78;;;11.50;99.90;;;12.07;82.52;101697.97;5076940;28;20187;-73
2021/10/27 01:32:22;;;;;;;9.80;3.20;;;11.50;99.90;;;12.05;82.42;101697.19;5073190;28;20200;-72
2021/10/27 01:34:51;;;;;;;10.43;4.15;;;11.50;99.90;;;12.04;82.36;101694.59;5066746;28;20223;-73
2021/10/27 01:37:18;;;;;;;9.38;3.60;;;11.50;99.90;;;12.03;82.54;101704.22;5073734;28;20188;-72
2021/10/27 01:39:45;;;;;;;9.52;3.67;;;11.50;99.90;;;12.02;82.45;101704.28;5070326;28;20188;-71
2021/10/27 01:42:12;;;;;;;8.50;3.08;;;11.50;99.90;;;12.01;82.52;101700.78;5070844;28;20224;-72
2021/10/27 01:44:39;;;;;;;9.07;3.40;;;11.50;99.90;;;11.99;82.61;101699.94;5075201;28;20216;-72
2021/10/27 01:47:06;;;;;;;12.02;3.92;;;11.50;99.90;;;11.99;82.65;101699.94;5073962;28;20206;-74
2021/10/27 01:49:33;;;;;;;11.48;3.63;;;11.50;99.90;;;11.99;82.57;101697.34;5064485;28;20189;-72
2021/10/27 01:52:02;;;;;;;12.07;3.38;;;11.50;99.90;;;11.98;82.72;101698.25;5071182;28;20748;-72
2021/10/27 01:54:29;;;;;;;8.88;3.35;;;11.50;99.90;;;12.00;82.75;101701.69;5084425;28;20269;-71
2021/10/27 01:56:56;;;;;;;12.48;4.93;;;11.50;99.90;;;12.01;82.67;101703.41;5079085;28;20191;-73
2021/10/27 01:59:23;;;;;;;10.55;4.93;;;11.50;99.90;;;12.01;82.69;101703.41;5074474;28;20192;-71
2021/10/27 02:01:50;;;;;;;9.90;4.20;;;11.50;99.90;;;12.03;82.72;101698.97;5068646;28;20288;-70
2021/10/27 02:04:18;;;;;;;10.70;3.70;;;11.50;99.90;;;12.05;82.49;101691.06;5068879;28;20242;-72
2021/10/27 02:06:45;;;;;;;10.50;4.00;;;11.50;99.90;;;12.06;82.68;101696.25;5067721;28;20665;-74
2021/10/27 02:09:13;;;;;;;10.85;3.53;;;11.50;99.90;;;12.07;82.62;101702.38;5069291;28;20250;-71
2021/10/27 02:11:40;;;;;;;10.02;3.78;;;11.50;99.90;;;12.06;82.71;101692.78;5066876;28;20200;-72
2021/10/27 02:14:07;;;;;;;10.85;3.70;;;11.50;99.90;;;12.07;82.74;101692.72;5071060;28;20198;-71
2021/10/27 02:16:34;;;;;;;9.80;3.60;;;11.50;99.90;;;12.07;82.64;101695.34;5068821;28;20238;-72
2021/10/27 02:19:02;;;;;;;9.85;3.80;;;11.50;99.90;;;12.07;82.45;101690.09;5065882;28;20203;-71
2021/10/27 02:21:29;;;;;;;10.57;3.47;;;11.60;99.90;;;12.10;82.63;101689.16;5066318;28;20226;-71
2021/10/27 02:23:55;;;;;;;11.95;4.03;;;11.60;99.90;;;12.09;82.34;101690.09;5063642;28;20192;-74
2021/10/27 02:26:26;;;;;;;9.75;3.63;;;11.60;99.90;;;12.09;82.56;101695.34;5070674;28;20343;-72
2021/10/27 02:28:53;;;;;;;12.30;4.00;;;11.60;99.90;;;12.08;82.25;101688.34;5075627;28;20191;-71
2021/10/27 02:31:20;;;;;;;11.25;4.40;;;11.60;99.90;;;12.09;82.40;101684.84;5074522;28;20272;-70
2021/10/27 02:33:47;;;;;;;10.25;4.38;;;11.60;99.90;;;12.09;82.62;101690.09;5064567;28;20203;-71
2021/10/27 02:36:15;;;;;;;11.68;4.22;;;11.60;99.90;;;12.11;82.47;101688.25;5075251;28;20265;-71
2021/10/27 02:38:43;;;;;;;11.18;4.18;;;11.60;99.90;;;12.12;82.30;101684.75;5081778;28;20279;-72
2021/10/27 02:41:13;;;;;;;10.02;4.05;;;11.60;99.90;;;12.13;82.23;101692.56;5070211;28;20700;-72
2021/10/27 02:43:41;;;;;;;10.27;4.30;;;11.60;99.90;;;12.11;82.20;101691.75;5060405;28;20193;-72
2021/10/27 02:46:09;;;;;;;10.63;3.90;;;11.60;99.90;;;12.12;82.49;101690.84;5069150;28;20203;-73
2021/10/27 02:48:36;;;;;;;10.95;4.53;;;11.60;99.90;;;12.12;82.42;101690.00;5088408;28;20188;-72
2021/10/27 02:51:04;;;;;;;10.80;3.97;;;11.60;99.90;;;12.14;82.22;101704.78;5066765;28;20606;-71
2021/10/27 02:53:31;;;;;;;9.02;3.40;;;11.70;99.90;;;12.14;82.26;101696.91;5068024;28;20200;-71
2021/10/27 02:55:58;;;;;;;10.52;3.58;;;11.60;99.90;;;12.13;82.23;101695.19;5073134;28;20263;-73
2021/10/27 02:58:24;;;;;;;10.85;3.40;;;11.60;99.90;;;12.13;82.33;101697.81;5066328;28;20189;-72
2021/10/27 03:00:52;;;;;;;9.43;3.70;;;11.70;99.90;;;12.11;82.21;101697.00;5075377;28;20208;-71
2021/10/27 03:03:19;;;;;;;12.52;3.70;;;11.70;99.90;;;12.11;82.33;101704.00;5059338;28;20272;-71
2021/10/27 03:05:46;;;;;;;10.40;3.78;;;11.60;99.90;;;12.13;82.30;101713.56;5069770;28;20839;-70
2021/10/27 03:08:13;;;;;;;9.27;3.42;;;11.70;99.90;;;12.13;82.49;101703.06;5076343;28;20249;-71
2021/10/27 03:10:39;;;;;;;9.07;3.38;;;11.60;99.90;;;12.12;82.54;101709.19;5072991;28;20677;-72
2021/10/27 03:13:06;;;;;;;9.10;3.75;;;11.60;99.90;;;12.11;82.25;101710.13;5071989;28;20743;-71
2021/10/27 03:15:33;;;;;;;10.57;4.45;;;11.60;99.90;;;12.11;82.56;101701.38;5070909;28;20263;-73
2021/10/27 03:18:01;;;;;;;10.27;3.67;;;11.60;99.90;;;12.11;82.40;101710.13;5072358;28;20237;-70
2021/10/27 03:20:28;;;;;;;9.98;4.22;;;11.60;99.90;;;12.10;82.31;101708.41;5067133;28;20592;-70
2021/10/27 03:22:55;;;;;;;10.93;4.10;;;11.60;99.90;;;12.12;82.54;101711.00;5069179;28;20714;-70
2021/10/27 03:25:21;;;;;;;9.82;3.60;;;11.60;99.90;;;12.12;82.57;101700.50;5073791;28;20208;-72
2021/10/27 03:27:48;;;;;;;10.43;3.55;;;11.60;99.90;;;12.15;82.46;101710.91;5071406;28;20190;-72
2021/10/27 03:30:15;;;;;;;12.30;3.83;;;11.60;99.90;;;12.14;82.33;101707.41;5073393;28;20236;-69
2021/10/27 03:32:42;;;;;;;9.80;3.90;;;11.60;99.90;;;12.13;82.27;101710.94;5067825;28;20204;-73
2021/10/27 03:35:11;;;;;;;12.55;3.85;;;11.70;99.90;;;12.13;82.19;101717.94;5056821;28;20211;-71
2021/10/27 03:37:38;;;;;;;8.55;3.70;;;11.70;99.90;;;12.11;82.24;101712.75;5072001;28;20184;-72
2021/10/27 03:40:06;;;;;;;10.60;4.25;;;11.70;99.90;;;12.10;82.30;101718.91;5064855;28;20187;-73
2021/10/27 03:42:33;;;;;;;9.50;3.90;;;11.60;99.90;;;12.10;82.39;101707.53;5067611;28;20219;-72
2021/10/27 03:45:00;;;;;;;10.20;3.80;;;11.70;99.90;;;12.12;82.34;101706.56;5076535;28;20226;-72
2021/10/27 03:47:27;;;;;;;11.18;4.28;;;11.60;99.90;;;12.13;82.25;101697.81;5069037;28;20625;-71
2021/10/27 03:49:54;;;;;;;13.80;4.20;;;11.60;99.90;;;12.12;82.25;101706.56;5064592;28;20196;-71
2021/10/27 03:52:22;;;;;;;10.70;4.05;;;11.60;99.90;;;12.13;82.11;101703.06;5061811;28;20196;-74
2021/10/27 03:54:49;;;;;;;10.48;4.15;;;11.70;99.90;;;12.14;82.50;101706.56;5082833;28;20219;-73
2021/10/27 03:57:16;;;;;;;11.82;4.05;;;11.60;99.90;;;12.13;82.30;101699.56;5074740;28;20249;-71
2021/10/27 03:59:43;;;;;;;12.18;3.92;;;11.60;99.90;;;12.13;82.30;101703.06;5064573;28;20685;-71
2021/10/27 04:02:09;;;;;;;9.73;4.05;;;11.70;99.90;;;12.13;82.26;101707.44;5058488;28;20219;-71
2021/10/27 04:04:36;;;;;;;11.80;4.70;;;11.60;99.90;;;12.11;82.21;101714.50;5068627;28;20212;-72
2021/10/27 04:07:04;;;;;;;13.88;3.75;;;11.60;99.90;;;12.10;82.15;101713.66;5070517;28;20219;-71
2021/10/27 04:09:32;;;;;;;12.95;4.00;;;11.70;99.90;;;12.06;82.14;101714.63;5056461;28;20208;-71
2021/10/27 04:11:59;;;;;;;10.65;4.43;;;11.60;99.90;;;12.04;82.10;101707.72;5072758;28;20718;-71
2021/10/27 04:14:26;;;;;;;10.00;3.63;;;11.60;99.90;;;12.03;82.35;101714.72;5068151;28;20213;-72
2021/10/27 04:16:52;;;;;;;11.60;4.18;;;11.60;99.90;;;12.03;82.45;101714.72;5064251;28;20200;-72
2021/10/27 04:19:19;;;;;;;11.50;4.05;;;11.60;99.90;;;12.04;82.59;101713.81;5069858;28;20193;-71
2021/10/27 04:21:46;;;;;;;11.82;4.15;;;11.60;99.90;;;12.03;82.49;101712.09;5069240;28;20216;-71
2021/10/27 04:24:13;;;;;;;11.35;3.90;;;11.60;99.90;;;12.05;82.14;101723.41;5072777;28;20203;-74
2021/10/27 04:26:41;;;;;;;12.18;5.30;;;11.60;99.90;;;12.07;82.20;101715.50;5074400;28;20193;-71
2021/10/27 04:29:08;;;;;;;10.30;4.45;;;11.60;99.90;;;12.08;81.99;101720.69;5062768;28;21125;-72
2021/10/27 04:31:36;;;;;;;13.13;4.40;;;11.60;99.90;;;12.09;82.34;101727.66;5061267;28;20690;-71
2021/10/27 04:34:03;;;;;;;11.15;3.97;;;11.60;99.90;;;12.07;82.21;101728.63;5066821;28;20284;-72
2021/10/27 04:36:31;;;;;;;9.93;3.97;;;11.60;99.90;;;12.02;82.19;101728.72;5075578;28;20196;-72
2021/10/27 04:38:58;;;;;;;11.38;4.13;;;11.60;99.90;;;11.99;82.30;101730.59;5069040;28;20241;-74
2021/10/27 04:41:25;;;;;;;11.88;3.85;;;11.50;99.90;;;11.96;82.65;101726.28;5071298;28;20265;-70
2021/10/27 04:43:53;;;;;;;9.25;3.70;;;11.50;99.90;;;11.97;82.63;101725.38;5068709;28;20200;-71
2021/10/27 04:46:20;;;;;;;10.13;3.70;;;11.50;99.90;;;11.99;82.34;101728.81;5064150;28;20205;-71
2021/10/27 04:48:47;;;;;;;11.82;4.05;;;11.50;99.90;;;12.00;82.31;101722.69;5076424;28;20199;-73
2021/10/27 04:51:13;;;;;;;9.38;3.58;;;11.50;99.90;;;12.00;82.13;101735.81;5061856;28;20245;-70
2021/10/27 04:53:40;;;;;;;10.23;4.00;;;11.60;99.90;;;12.02;82.31;101728.72;5061812;28;20214;-69
2021/10/27 04:56:07;;;;;;;10.38;4.05;;;11.50;99.90;;;12.03;82.28;101737.47;5058436;28;20631;-71
2021/10/27 04:58:33;;;;;;;11.70;3.78;;;11.50;99.90;;;12.03;82.23;101733.09;5072836;28;20238;-72
2021/10/27 05:01:02;;;;;;;10.27;3.88;;;11.50;99.90;;;12.05;82.11;101731.28;5062973;28;20678;-71
2021/10/27 05:03:28;;;;;;;10.27;3.55;;;11.50;99.90;;;12.07;81.94;101736.50;5089108;28;20199;-72
2021/10/27 05:05:56;;;;;;;10.93;3.75;;;11.60;99.90;;;12.06;81.92;101742.63;5059969;28;20208;-71
2021/10/27 05:08:24;;;;;;;12.20;3.45;;;11.60;99.90;;;12.05;82.16;101726.03;5084089;28;20207;-71
2021/10/27 05:10:51;;;;;;;11.25;4.15;;;11.60;99.90;;;12.03;82.15;101727.84;5069049;28;20189;-72
2021/10/27 05:13:19;;;;;;;10.95;4.28;;;11.60;99.90;;;12.05;82.17;101720.78;5061517;28;20291;-72
2021/10/27 05:15:46;;;;;;;10.35;3.67;;;11.60;99.90;;;12.07;81.94;101718.97;5063007;28;20239;-72
2021/10/27 05:18:16;;;;;;;10.48;4.10;;;11.60;99.90;;;12.07;81.87;101712.88;5062994;28;20243;-69
2021/10/27 05:20:44;;;;;;;11.95;3.63;;;11.60;99.90;;;12.05;82.05;101712.06;5080850;28;20199;-72
2021/10/27 05:23:10;;;;;;;9.27;3.47;;;11.60;99.90;;;11.99;81.84;101710.44;5066315;28;20778;-72
2021/10/27 05:25:38;;;;;;;10.82;3.63;;;11.60;99.90;;;11.98;82.09;101713.13;5061076;28;20219;-72
2021/10/27 05:28:05;;;;;;;9.38;3.63;;;11.60;99.90;;;12.00;82.13;101716.56;5084806;28;20195;-73
2021/10/27 05:30:33;;;;;;;13.55;4.10;;;11.50;99.90;;;12.04;82.19;101715.59;5071071;28;20573;-72
2021/10/27 05:33:00;;;;;;;8.90;3.33;;;11.50;99.90;;;12.05;82.31;101726.03;5056035;28;20708;-72
2021/10/27 05:35:31;;;;;;;11.75;3.53;;;11.60;99.90;;;12.04;82.07;101718.22;5081766;28;22084;-73
2021/10/27 05:37:59;;;;;;;10.45;3.60;;;11.60;99.90;;;12.04;82.04;101719.06;5063119;28;20197;-72
2021/10/27 05:40:27;;;;;;;12.88;4.32;;;11.60;99.90;;;12.05;81.96;101723.41;5066528;28;20192;-72
2021/10/27 05:42:55;;;;;;;11.77;3.67;;;11.60;99.90;;;12.04;81.94;101721.69;5078297;28;20217;-71
2021/10/27 05:45:25;;;;;;;10.88;3.88;;;11.60;99.90;;;12.03;81.76;101722.59;5080039;28;20219;-71
2021/10/27 05:47:55;;;;;;;10.63;3.90;;;11.60;99.90;;;12.02;82.04;101728.72;5071808;28;20234;-72
2021/10/27 05:50:27;;;;;;;9.98;3.83;;;11.60;99.90;;;12.03;82.20;101727.84;5061887;28;20200;-74
2021/10/27 05:55:40;;;;;;;9.27;3.72;;;11.60;99.90;;;12.09;81.95;101738.16;5057341;28;20242;-70
2021/10/27 05:58:09;;;;;;;9.55;3.25;;;11.60;99.90;;;12.09;82.13;101739.94;5065564;28;20547;-71
2021/10/27 06:00:36;;;;;;;8.75;3.40;;;11.60;99.90;;;12.07;81.85;101736.50;5063291;28;20188;-71
2021/10/27 06:03:04;;;;;;;10.07;3.53;;;11.60;99.90;;;12.07;82.14;101745.19;5063840;28;20237;-72
2021/10/27 06:05:31;;;;;;;9.60;3.25;;;11.60;99.90;;;12.09;82.33;101742.56;5063073;28;20232;-73
2021/10/27 06:08:00;;;;;;;10.60;3.35;;;11.60;99.90;;;12.11;82.26;101748.59;5062604;28;20188;-72
2021/10/27 06:10:28;;;;;;;10.68;3.40;;;11.60;99.90;;;12.12;81.83;101743.31;5074255;28;20192;-72
2021/10/27 06:13:01;;;;;;;11.73;3.58;;;11.60;99.90;;;12.16;81.89;101749.34;5057153;28;20566;-72
2021/10/27 06:15:28;;;;;;;10.40;3.45;;;11.70;99.90;;;12.14;81.66;101749.38;5079106;28;20210;-73
2021/10/27 06:17:55;;;;;;;8.85;3.17;;;11.70;99.90;;;12.16;82.02;101762.47;5066809;28;20193;-72
2021/10/27 06:20:22;;;;;;;8.65;3.08;;;11.70;99.90;;;12.15;81.86;101766.88;5077873;28;20294;-72
2021/10/27 06:22:49;;;;;;;13.18;3.30;;;11.70;99.90;;;12.17;81.79;101769.44;5067141;28;20207;-72
2021/10/27 06:25:17;;;;;;;9.65;3.00;;;11.70;99.90;;;12.16;81.72;101770.34;5062094;28;20211;-71
2021/10/27 06:27:47;;;;;;;9.65;3.10;;;11.70;99.90;;;12.16;81.79;101771.22;5077289;28;20264;-75
2021/10/27 06:30:17;;;;;;;9.88;2.88;;;11.70;99.90;;;12.16;81.71;101765.97;5063390;28;20203;-72
2021/10/27 06:32:58;;;;;;;9.05;2.55;;;11.70;99.90;;;12.18;81.96;101773.78;5071533;28;20297;-72
2021/10/27 06:35:27;;;;;;;8.10;2.83;;;11.70;99.90;;;12.18;81.79;101766.78;5061536;28;20203;-71
2021/10/27 06:38:17;;;;;;;10.80;3.38;;;11.70;99.90;;;12.20;81.83;101774.63;5070587;28;20202;-72
2021/10/27 06:46:32;;;;;;;7.82;2.65;;;11.80;99.90;;;12.30;81.53;101779.56;5028195;28;20220;-73
2021/10/27 06:48:59;;;;;;;10.32;3.33;;;11.80;99.90;;;12.31;81.48;101781.28;5060286;28;20188;-71
2021/10/27 06:51:26;;;;;;;12.02;3.40;;;11.80;99.90;;;12.31;81.68;101781.28;5060339;28;20195;-72
2021/10/27 06:53:53;;;;;;;10.80;3.25;;;11.80;99.90;;;12.29;81.53;101788.34;5062748;28;20200;-74
2021/10/27 06:56:22;;;;;;;9.02;2.90;;;11.80;99.90;;;12.29;81.69;101790.97;5064031;28;20216;-72
2021/10/27 06:58:53;;;;;;;9.88;3.17;;;11.80;99.90;;;12.30;81.33;101779.56;5072395;28;20250;-71
2021/10/27 07:01:24;;;;;;;8.07;2.80;;;11.90;99.90;;;12.34;81.65;101789.06;5073631;28;20234;-71
2021/10/27 07:15:08;;;;;;;12.45;3.67;;;12.00;99.90;;;12.49;81.48;101782.56;5061297;28;20224;-72
2021/10/27 07:17:35;;;;;;;7.55;2.72;;;12.00;99.90;;;12.52;81.13;101782.47;5065297;28;20184;-71
2021/10/27 07:20:07;;;;;;;9.75;3.00;;;12.10;99.90;;;12.58;81.02;101787.53;5073649;28;20192;-71
2021/10/27 07:22:35;;;;;;;7.80;2.70;;;12.10;99.90;;;12.61;80.98;101801.44;5069526;28;20298;-75
2021/10/27 07:25:03;;;;;;;8.65;3.17;;;12.20;99.90;;;12.64;81.24;101798.72;5062587;28;20219;-72
2021/10/27 07:27:31;;;;;;;9.55;3.17;;;12.20;99.90;;;12.67;80.91;101810.03;5080517;28;20188;-73
2021/10/27 07:29:58;;;;;;;12.00;3.15;;;12.20;99.90;;;12.68;81.02;101796.00;5064170;28;20944;-71
2021/10/27 07:32:27;;;;;;;11.52;3.25;;;12.30;99.90;;;12.71;80.89;101803.81;5073000;28;20196;-71
2021/10/27 07:34:58;;;;;;;11.35;3.47;;;12.30;99.90;;;12.72;80.70;101792.38;5067047;28;20216;-73
2021/10/27 07:43:13;;;;;;;10.70;3.28;;;12.40;99.90;;;12.80;80.53;101798.28;5012716;28;20755;-72
2021/10/27 07:45:43;;;;;;;8.82;3.10;;;12.40;99.90;;;12.81;80.38;101803.47;5042920;28;20239;-72
2021/10/27 07:48:11;;;;;;;7.78;2.67;;;12.40;99.90;;;12.81;80.48;101807.91;5057985;28;20199;-73
2021/10/27 07:50:39;;;;;;;9.05;3.22;;;12.40;99.90;;;12.84;80.14;101811.28;5064816;28;20189;-72
2021/10/27 07:53:08;;;;;;;8.40;2.70;;;12.40;99.90;;;12.86;80.47;101808.63;5060089;28;20651;-72
2021/10/27 07:55:38;;;;;;;7.75;2.78;;;12.40;99.90;;;12.87;80.75;101807.72;5062270;28;20339;-72
2021/10/27 07:58:06;;;;;;;10.18;2.88;;;12.50;99.90;;;12.90;80.23;101804.97;5063733;28;20610;-72
2021/10/27 08:00:34;;;;;;;10.18;3.00;;;12.50;99.90;;;12.94;80.10;101811.88;5060641;28;20238;-72
2021/10/27 08:03:03;;;;;;;8.88;2.58;;;12.50;99.90;;;12.94;80.53;101812.75;5062571;28;20209;-72
2021/10/27 08:05:37;;;;;;;10.00;2.95;;;12.60;99.90;;;13.00;80.37;101815.19;5060934;28;20239;-72
2021/10/27 08:08:05;;;;;;;10.55;2.85;;;12.60;99.90;;;13.07;80.22;101808.00;5067284;28;20215;-71
2021/10/27 08:10:32;;;;;;;7.13;2.83;;;12.70;99.90;;;13.13;80.00;101808.69;5063415;28;20192;-72
2021/10/27 08:13:00;;;;;;;8.30;2.75;;;12.80;99.90;;;13.21;80.20;101811.94;5054484;28;20219;-73
2021/10/27 08:15:28;;;;;;;9.18;2.72;;;12.80;99.90;;;13.29;80.07;101811.72;5057716;28;20208;-72
2021/10/27 08:17:57;;;;;;;9.30;3.10;;;12.90;99.90;;;13.38;79.83;101814.06;5066161;28;20192;-74
2021/10/27 08:20:28;;;;;;;8.07;3.15;;;13.10;99.90;;;13.48;79.44;101820.75;5060626;28;20200;-71
2021/10/27 08:22:57;;;;;;;9.43;2.92;;;13.10;99.90;;;13.52;79.61;101815.34;5077943;28;20217;-71
2021/10/27 08:25:29;;;;;;;8.20;2.58;;;13.20;99.90;;;13.57;79.34;101817.81;5054914;28;20295;-72
2021/10/27 08:27:58;;;;;;;9.20;2.65;;;13.30;99.90;;;13.59;79.39;101816.00;5064767;28;20197;-72
2021/10/27 08:30:34;;;;;;;8.43;2.30;;;13.20;99.90;;;13.60;79.04;101807.19;5073932;28;20210;-72
2021/10/27 08:33:05;;;;;;;10.82;2.85;;;13.30;99.90;;;13.63;79.17;101812.38;5058171;28;20717;-69
2021/10/27 08:35:34;;;;;;;9.18;3.00;;;13.30;99.90;;;13.63;79.36;101807.97;5062470;28;20281;-71
2021/10/27 08:38:03;;;;;;;8.90;2.97;;;13.30;99.90;;;13.65;79.10;101816.66;5068464;28;20292;-71
2021/10/27 08:40:30;;;;;;;10.77;2.90;;;13.30;99.90;;;13.70;79.15;101821.78;5063512;28;20184;-74
2021/10/27 08:42:59;;;;;;;8.77;2.58;;;13.30;99.90;;;13.74;79.26;101815.50;5079162;28;20584;-71
2021/10/27 08:45:28;;;;;;;8.93;2.92;;;13.30;99.90;;;13.77;79.32;101820.66;5060216;28;20220;-71
2021/10/27 08:47:56;;;;;;;8.48;2.40;;;13.30;99.90;;;13.80;79.20;101825.81;5066292;28;20195;-73
2021/10/27 08:50:25;;;;;;;8.85;2.90;;;13.40;99.90;;;13.83;79.19;101828.38;5060233;28;20708;-74
2021/10/27 08:52:52;;;;;;;10.40;2.70;;;13.40;99.90;;;13.85;79.14;101827.41;5056131;28;20211;-72
2021/10/27 08:55:20;;;;;;;8.70;2.70;;;13.50;99.90;;;13.87;78.86;101827.34;5059398;28;20218;-70
2021/10/27 08:57:49;;;;;;;8.68;2.67;;;13.50;99.90;;;13.88;79.31;101824.66;5069520;28;21164;-74
2021/10/27 09:00:21;;;;;;;10.75;2.67;;;13.50;99.90;;;13.90;78.95;101827.22;5059892;28;20196;-74
2021/10/27 09:03:06;;;;;;;12.82;3.42;;;13.50;99.90;;;13.92;79.10;101835.06;5065053;28;20710;-72
2021/10/27 09:08:46;;;;;;;8.50;2.60;;;13.60;99.90;;;14.00;78.79;101848.88;5075132;28;20230;-73
2021/10/27 09:33:30;;;;;;;12.50;3.10;;;13.60;99.90;;;14.02;78.84;101842.63;5050536;28;20195;-72
2021/10/27 09:34:29;;;;;;;9.05;3.08;;;13.90;99.90;;;14.35;78.82;101853.84;5058241;28;20678;-73
2021/10/27 09:42:45;;;;;;;8.43;2.75;;;14.10;99.90;;;14.50;78.47;101854.13;5061803;28;20321;-72
2021/10/27 10:05:40;;;;;;;8.32;2.67;;;14.40;99.90;;;14.67;77.95;101886.03;4983992;28;20305;-75
2021/10/27 10:08:08;;;;;;;7.18;2.45;;;14.40;99.90;;;14.65;78.00;101885.22;5046345;28;20204;-72
2021/10/27 10:10:35;;;;;;;10.85;2.33;;;14.40;99.90;;;14.65;77.98;101887.00;5065094;28;21910;-71
2021/10/27 10:13:04;;;;;;;9.38;2.35;;;14.40;99.90;;;14.64;78.05;101886.13;5071012;28;20234;-74
2021/10/27 10:15:38;;;;;;;13.27;2.55;;;14.40;99.90;;;14.64;77.81;101890.53;5073868;28;20289;-71
2021/10/27 10:18:07;;;;;;;13.60;2.85;;;14.40;99.90;;;14.63;77.94;101897.59;5064480;28;20297;-73
2021/10/27 10:20:37;;;;;;;9.95;3.05;;;14.40;99.90;;;14.67;77.62;101890.41;5063552;28;20670;-74
2021/10/27 10:23:21;;;;;;;10.57;2.63;;;14.40;99.90;;;14.68;77.50;101893.03;5065914;28;20574;-74
2021/10/27 10:25:54;;;;;;;85.72;11.05;;;14.50;99.90;;;14.71;77.79;101890.28;5063012;28;20214;-75
2021/10/27 10:28:25;;;;;;;18.67;3.60;;;14.50;99.90;;;14.71;77.60;101887.66;5064828;28;20238;-75
2021/10/27 10:30:57;;;;;;;61.45;8.90;;;14.50;99.90;;;14.71;77.72;101887.66;5070483;28;20257;-76
2021/10/27 10:33:41;;;;;;;31.00;5.95;;;14.50;99.90;;;14.73;77.41;101892.84;5073186;28;20211;-77
2021/10/27 10:36:12;;;;;;;25.15;4.75;;;14.60;99.90;;;14.71;77.46;101882.38;5068677;28;20219;-75
2021/10/27 10:39:00;;;;;;;19.70;4.75;;;14.50;99.90;;;14.69;77.50;101889.47;5067982;28;20199;-76
2021/10/27 10:42:07;;;;;;;276.33;38.00;;;14.50;99.90;;;14.64;77.46;101886.13;5072774;28;20211;-75
2021/10/27 11:26:13;;;;;;;22.58;5.03;;;14.60;99.90;;;14.74;78.62;101882.25;5065186;28;20266;-74
2021/10/27 11:39:50;;;;;;;8.60;2.67;;;14.60;99.90;;;14.74;78.92;101869.09;5072617;28;20196;-74
2021/10/27 11:42:35;;;;;;;9.18;2.88;;;14.60;99.90;;;14.75;78.49;101873.44;5067503;28;20180;-75
2021/10/27 11:45:21;;;;;;;10.52;2.95;;;14.50;99.90;;;14.75;78.66;101868.16;5063195;28;20659;-75
2021/10/27 11:47:52;;;;;;;31.02;4.78;;;14.50;99.90;;;14.79;78.44;101866.28;5064842;28;20196;-75
2021/10/27 11:50:21;;;;;;;35.22;5.97;;;14.60;99.90;;;14.83;78.38;101858.22;5065446;28;20188;-75
2021/10/27 11:52:52;;;;;;;45.10;6.95;;;14.60;99.90;;;14.86;78.41;101866.00;5067364;28;20206;-76
2021/10/27 11:55:22;;;;;;;22.85;4.75;;;14.60;99.90;;;14.87;78.87;101858.94;5059746;28;20266;-74
2021/10/27 11:57:54;;;;;;;11.80;3.13;;;14.70;99.90;;;14.86;78.74;101858.09;5066972;28;20269;-74
2021/10/27 12:00:30;;;;;;;53.03;9.90;;;14.60;99.90;;;14.87;78.36;101864.22;5070156;28;20591;-74
2021/10/27 12:03:03;;;;;;;19.45;3.58;;;14.70;99.90;;;14.88;78.63;101858.03;5079545;28;20179;-75
2021/10/27 12:05:38;;;;;;;18.75;4.53;;;14.70;99.90;;;14.86;78.77;101855.47;5073923;28;20208;-75
2021/10/27 12:08:22;;;;;;;148.63;18.63;;;14.60;99.90;;;14.87;78.51;101856.31;5070148;28;20568;-75
2021/10/27 12:11:04;;;;;;;19.75;4.25;;;14.60;99.90;;;14.87;78.56;101853.66;5070899;28;20187;-76
2021/10/27 12:13:50;;;;;;;68.70;10.07;;;14.60;99.90;;;14.88;78.81;101852.78;5072696;28;20237;-73
2021/10/27 12:16:34;;;;;;;22.50;4.13;;;14.60;99.90;;;14.85;78.78;101845.81;5071428;28;20661;-74
2021/10/27 12:19:06;;;;;;;33.25;5.35;;;14.60;99.90;;;14.87;78.99;101846.63;5077666;28;20203;-74
2021/10/27 12:21:36;;;;;;;22.42;4.95;;;14.60;99.90;;;14.87;78.85;101844.00;5065427;28;20299;-75
2021/10/27 12:24:04;;;;;;;9.32;2.60;;;14.60;99.90;;;14.89;78.54;101838.66;5061047;28;20290;-74